Hovedside
METAR-TAF:

METAR-TAF

Lufthavner :

Oslo, Norge

Oslo lufthavn (Gardermoen)

breddegrad: 60-12N, lengdegrad: 011-05E, høyde over havet: 208 m

Gjeldene værobservasjon

Denne rapporten ble laget for 35 minutter siden, klokken 18:50 UTC
Vind 1 kt fra Nord
Temperatur -5°C
Luftfuktighet 86%
Trykk 995 hPa
Sikt 10 km eller mer
Brutte skyer i en høyde av 1400 ft

METAR: ENGM 181850Z 01001KT 9999 BKN014 M05/M07 Q0995 NOSIG

Tid: 20:25 (19:25 UTC)

Varsel

Varsel gyldig fra 18. klokken 18 UTC til 19. klokken 18 UTC
Vind 5 kt fra Nord-nordøst
Sikt 10 km eller mer
Spredte skyer i en høyde av 800 ft
Brutte skyer i en høyde av 2000 ft
lett snø
Midlertidig
fra 18. klokken 18 UTC til 19. klokken 18 UTC
Sikt: 2500 m
Overskyet i en høyde av 400 ft
lett snø, dis
Blir
fra 19. klokken 09 UTC til 19. klokken 11 UTC
Vind 10 kt fra Sør

TAF: ENGM 1818/1918 02005KT 9999 -SN SCT008 BKN020 TEMPO 1818/1918 2500 -SN BR OVC004 BECMG 1909/1911 17010KT

Værobservasjoner og værvarsel for over 4000 flyplasser (METAR- og TAF-rapporter).

Tilgjengelige stasjoner er representert av de røde og gule prikkene på kartet.

Hold musepekeren over prikken for å se navnet på stasjonen.

Klikk så for å se værobservasjoner og -varsler.

For å forandre kartet kan du klikke på den grønne knappen med svart kryss for å zoome inn, på den grønne knappen med strek for å zoome ut, eller på de grønne pilene for å se tilstøtende kart.


METAR-TAF: